createdAt,value
2017-12-02T00:02:00.783Z,33.95
2017-12-02T00:04:28.269Z,33.70
2017-12-02T00:06:55.771Z,38.97
2017-12-02T00:09:24.010Z,40.00
2017-12-02T00:11:51.585Z,37.17
2017-12-02T00:14:19.057Z,48.22
2017-12-02T00:16:47.291Z,30.70
2017-12-02T00:19:14.871Z,45.35
2017-12-02T00:21:42.438Z,37.95
2017-12-02T00:24:09.914Z,31.70
2017-12-02T00:26:38.146Z,29.42
2017-12-02T00:29:05.618Z,52.40
2017-12-02T00:31:33.087Z,48.13
2017-12-02T00:34:01.342Z,47.03
2017-12-02T00:36:28.922Z,45.00
2017-12-02T00:38:57.149Z,42.03
2017-12-02T00:41:24.628Z,50.12
2017-12-02T00:43:52.100Z,52.00
2017-12-02T00:46:19.573Z,48.90
2017-12-02T00:48:47.845Z,52.40
2017-12-02T00:51:16.078Z,43.83
2017-12-02T00:53:43.555Z,41.95
2017-12-02T00:56:11.024Z,50.17
2017-12-02T00:58:38.627Z,49.17
2017-12-02T01:01:06.093Z,49.58
2017-12-02T01:03:33.549Z,43.95
2017-12-02T01:06:01.022Z,42.45
2017-12-02T01:08:28.500Z,40.25
2017-12-02T01:10:55.976Z,48.10
2017-12-02T01:13:24.198Z,37.85
2017-12-02T01:15:51.701Z,46.10
2017-12-02T01:18:19.190Z,44.80
2017-12-02T01:20:46.658Z,39.83
2017-12-02T01:23:14.138Z,54.22
2017-12-02T01:25:41.625Z,41.97
2017-12-02T01:28:09.189Z,42.58
2017-12-02T01:30:36.725Z,33.92
2017-12-02T01:33:04.188Z,48.85
2017-12-02T01:35:31.748Z,44.47
2017-12-02T01:37:59.214Z,40.08
2017-12-02T01:40:26.769Z,44.55
2017-12-02T01:42:54.337Z,35.60
2017-12-02T01:45:22.594Z,37.85
2017-12-02T01:47:50.836Z,36.30
2017-12-02T01:50:18.337Z,40.33
2017-12-02T01:52:45.805Z,35.88
2017-12-02T01:55:14.068Z,34.63
2017-12-02T01:57:41.541Z,35.28
2017-12-02T02:00:09.775Z,46.45
2017-12-02T02:02:37.248Z,34.60
2017-12-02T02:05:04.704Z,34.00
2017-12-02T02:07:32.170Z,33.25
2017-12-02T02:10:00.498Z,34.83
2017-12-02T02:12:27.998Z,44.42
2017-12-02T02:14:55.462Z,37.40
2017-12-02T02:17:22.929Z,39.95
2017-12-02T02:19:51.159Z,43.05
2017-12-02T02:22:18.620Z,37.80
2017-12-02T02:24:46.084Z,40.35
2017-12-02T02:27:13.548Z,39.35
2017-12-02T02:29:41.031Z,31.15
2017-12-02T02:32:09.258Z,36.83
2017-12-02T02:34:36.744Z,39.17
2017-12-02T02:37:04.211Z,35.90
2017-12-02T02:39:31.765Z,37.70
2017-12-02T02:41:59.228Z,44.45
2017-12-02T02:44:26.710Z,34.85
2017-12-02T02:46:54.242Z,50.10
2017-12-02T02:49:21.701Z,39.60
2017-12-02T02:51:49.160Z,40.63
2017-12-02T02:54:17.429Z,35.72
2017-12-02T02:56:44.893Z,34.35
2017-12-02T02:59:13.117Z,31.45
2017-12-02T03:01:40.608Z,36.72
2017-12-02T03:04:08.168Z,38.63
2017-12-02T03:06:35.633Z,37.30
2017-12-02T03:09:03.094Z,34.95
2017-12-02T03:11:31.333Z,38.85
2017-12-02T03:13:58.791Z,34.70
2017-12-02T03:16:26.262Z,37.03
2017-12-02T03:18:53.734Z,38.20
2017-12-02T03:21:21.283Z,36.63
2017-12-02T03:23:48.755Z,40.65
2017-12-02T03:26:16.217Z,35.97
2017-12-02T03:28:44.692Z,36.70
2017-12-02T03:31:12.146Z,36.92
2017-12-02T03:33:39.700Z,38.80
2017-12-02T03:36:07.966Z,35.53
2017-12-02T03:38:35.585Z,39.13
2017-12-02T03:41:03.057Z,37.95
2017-12-02T03:43:30.519Z,36.50
2017-12-02T03:45:57.989Z,37.05
2017-12-02T03:48:25.453Z,43.70
2017-12-02T03:50:53.071Z,42.17
2017-12-02T03:53:20.613Z,35.80
2017-12-02T03:55:48.120Z,35.55
2017-12-02T03:58:15.584Z,44.90
2017-12-02T04:00:43.040Z,34.42
2017-12-02T04:03:10.525Z,42.60
2017-12-02T04:05:38.792Z,33.17
2017-12-02T04:08:07.019Z,37.08
2017-12-02T04:10:34.493Z,43.83
2017-12-02T04:13:02.037Z,44.60
2017-12-02T04:15:29.516Z,40.12
2017-12-02T04:17:56.976Z,42.40
2017-12-02T04:20:24.596Z,48.28
2017-12-02T04:22:52.198Z,36.33
2017-12-02T04:25:19.761Z,38.40
2017-12-02T04:27:47.221Z,33.20
2017-12-02T04:30:16.198Z,51.60
2017-12-02T04:32:43.771Z,34.22
2017-12-02T04:35:11.346Z,41.63
2017-12-02T04:37:39.565Z,35.35
2017-12-02T04:40:07.033Z,38.50
2017-12-02T04:42:34.504Z,39.45
2017-12-02T04:45:01.975Z,42.47
2017-12-02T04:47:29.431Z,42.15
2017-12-02T04:49:56.892Z,32.80
2017-12-02T04:52:24.352Z,36.70
2017-12-02T04:54:51.897Z,37.47
2017-12-02T04:57:19.364Z,34.42
2017-12-02T04:59:46.820Z,35.92
2017-12-02T05:02:14.376Z,32.85
2017-12-02T05:04:43.342Z,37.42
2017-12-02T05:07:10.820Z,33.85
2017-12-02T05:09:38.379Z,35.33
2017-12-02T05:12:05.842Z,39.35
2017-12-02T05:14:33.300Z,44.60
2017-12-02T05:17:02.285Z,42.97
2017-12-02T05:19:29.749Z,40.75
2017-12-02T05:21:57.214Z,35.15
2017-12-02T05:24:24.676Z,34.72
2017-12-02T05:26:52.901Z,40.42
2017-12-02T05:29:20.363Z,38.20
2017-12-02T05:31:47.826Z,42.22
2017-12-02T05:34:15.289Z,33.97
2017-12-02T05:36:42.854Z,33.65
2017-12-02T05:39:12.313Z,49.35
2017-12-02T05:41:39.781Z,39.88
2017-12-02T05:44:07.245Z,41.08
2017-12-02T05:46:34.725Z,37.42
2017-12-02T05:49:02.280Z,43.17
2017-12-02T05:51:29.751Z,39.70
2017-12-02T05:53:57.304Z,43.20
2017-12-02T05:56:24.861Z,37.80
2017-12-02T05:58:52.332Z,42.92
2017-12-02T06:01:19.804Z,42.67
2017-12-02T06:03:48.035Z,40.20
2017-12-02T06:06:15.497Z,38.63
2017-12-02T06:08:42.956Z,40.35
2017-12-02T06:11:10.420Z,39.80
2017-12-02T06:13:37.894Z,39.90
2017-12-02T06:16:06.120Z,40.72
2017-12-02T06:18:33.587Z,44.85
2017-12-02T06:21:01.048Z,42.40
2017-12-02T06:23:28.505Z,41.42
2017-12-02T06:25:55.960Z,38.80
2017-12-02T06:28:23.428Z,41.13
2017-12-02T06:30:51.671Z,38.95
2017-12-02T06:33:19.120Z,46.75
2017-12-02T06:35:46.680Z,41.67
2017-12-02T06:38:14.146Z,40.33
2017-12-02T06:40:41.614Z,43.60
2017-12-02T06:43:09.080Z,35.30
2017-12-02T06:45:36.585Z,35.97
2017-12-02T06:48:04.831Z,39.40
2017-12-02T06:50:32.297Z,37.95
2017-12-02T06:52:59.756Z,32.88
2017-12-02T06:55:27.983Z,42.80
2017-12-02T06:57:55.469Z,38.53
2017-12-02T07:00:22.941Z,33.88
2017-12-02T07:02:51.184Z,40.05
2017-12-02T07:05:18.645Z,38.88
2017-12-02T07:07:46.126Z,37.75
2017-12-02T07:10:13.589Z,33.95
2017-12-02T07:12:41.816Z,41.33
2017-12-02T07:15:09.273Z,33.13
2017-12-02T07:17:36.732Z,34.85
2017-12-02T07:20:04.206Z,31.77
2017-12-02T07:22:31.662Z,35.63
2017-12-02T07:24:59.139Z,34.38
2017-12-02T07:27:26.609Z,42.47
2017-12-02T07:29:54.860Z,36.22
2017-12-02T07:32:22.417Z,33.40
2017-12-02T07:34:49.977Z,29.87
2017-12-02T07:37:17.437Z,32.92
2017-12-02T07:39:44.908Z,35.10
2017-12-02T07:42:13.134Z,33.85
2017-12-02T07:44:40.593Z,39.53
2017-12-02T07:47:08.069Z,37.78
2017-12-02T07:49:35.534Z,35.30
2017-12-02T07:52:03.005Z,35.80
2017-12-02T07:54:30.465Z,34.58
2017-12-02T07:56:58.735Z,34.50
2017-12-02T07:59:26.192Z,39.60
2017-12-02T08:01:53.891Z,33.55
2017-12-02T08:04:21.344Z,36.45
2017-12-02T08:06:48.809Z,38.38
2017-12-02T08:09:16.276Z,35.30
2017-12-02T08:11:43.778Z,34.05
2017-12-02T08:14:11.243Z,38.97
2017-12-02T08:16:38.729Z,38.55
2017-12-02T08:19:06.248Z,37.10
2017-12-02T08:21:33.725Z,31.05
2017-12-02T08:24:01.953Z,36.50
2017-12-02T08:26:29.428Z,35.70
2017-12-02T08:28:57.672Z,32.70
2017-12-02T08:31:25.136Z,35.50
2017-12-02T08:33:52.601Z,41.88
2017-12-02T08:36:20.059Z,37.80
2017-12-02T08:38:47.526Z,36.08
2017-12-02T08:41:14.988Z,32.88
2017-12-02T08:43:42.449Z,31.90
2017-12-02T08:46:09.920Z,30.62
2017-12-02T08:48:37.388Z,39.47
2017-12-02T08:51:05.610Z,36.88
2017-12-02T08:53:33.077Z,37.05
2017-12-02T08:56:00.533Z,33.90
2017-12-02T08:58:28.000Z,33.00
2017-12-02T09:00:55.509Z,36.30
2017-12-02T09:03:22.969Z,34.58
2017-12-02T09:05:50.436Z,32.15
2017-12-02T09:08:17.913Z,32.38
2017-12-02T09:10:45.385Z,32.65
2017-12-02T09:13:12.852Z,33.83
2017-12-02T09:15:40.319Z,35.30
2017-12-02T09:18:07.816Z,43.17
2017-12-02T09:20:36.027Z,34.85
2017-12-02T09:23:03.482Z,35.03
2017-12-02T09:25:30.970Z,35.03
2017-12-02T09:27:59.207Z,38.42
2017-12-02T09:30:26.671Z,35.72
2017-12-02T09:32:54.133Z,34.58
2017-12-02T09:35:21.597Z,30.75
2017-12-02T09:37:49.071Z,32.58
2017-12-02T09:40:17.296Z,34.67
2017-12-02T09:42:44.752Z,30.65
2017-12-02T09:45:12.224Z,37.45
2017-12-02T09:47:39.677Z,32.70
2017-12-02T09:50:07.909Z,34.40
2017-12-02T09:52:35.380Z,34.63
2017-12-02T09:55:02.840Z,34.85
2017-12-02T09:57:30.343Z,36.40
2017-12-02T09:59:57.901Z,38.33
2017-12-02T10:02:25.363Z,31.70
2017-12-02T10:04:52.909Z,40.67
2017-12-02T10:07:20.468Z,32.38
2017-12-02T10:09:47.928Z,33.90
2017-12-02T10:12:15.392Z,26.90
2017-12-02T10:14:43.606Z,33.95
2017-12-02T10:17:11.076Z,25.67
2017-12-02T10:19:38.570Z,31.67
2017-12-02T10:22:06.012Z,28.10
2017-12-02T10:24:33.477Z,28.90
2017-12-02T10:27:01.055Z,27.80
2017-12-02T10:29:28.516Z,26.70
2017-12-02T10:31:55.985Z,27.42
2017-12-02T10:34:24.217Z,30.58
2017-12-02T10:36:51.791Z,31.20
2017-12-02T10:39:19.244Z,27.05
2017-12-02T10:41:46.700Z,28.85
2017-12-02T10:44:14.200Z,24.35
2017-12-02T10:46:41.669Z,20.35
2017-12-02T10:49:09.181Z,29.25
2017-12-02T10:51:36.636Z,28.85
2017-12-02T10:54:06.693Z,29.40
2017-12-02T10:56:34.144Z,26.73
2017-12-02T10:59:01.605Z,28.83
2017-12-02T11:01:29.337Z,22.25
2017-12-02T11:03:56.889Z,21.45
2017-12-02T11:06:24.358Z,26.30
2017-12-02T11:08:52.622Z,23.60
2017-12-02T11:11:20.172Z,20.65
2017-12-02T11:13:47.733Z,22.05
2017-12-02T11:16:15.246Z,22.98
2017-12-02T11:18:42.720Z,19.92
2017-12-02T11:21:10.185Z,18.60
2017-12-02T11:23:37.656Z,19.23
2017-12-02T11:26:05.124Z,20.30
2017-12-02T11:28:32.596Z,24.60
2017-12-02T11:31:00.832Z,14.60
2017-12-02T11:33:28.276Z,15.10
2017-12-02T11:35:56.515Z,13.95
2017-12-02T11:38:24.734Z,14.05
2017-12-02T11:40:52.192Z,15.70
2017-12-02T11:43:19.666Z,17.05
2017-12-02T11:45:47.117Z,15.90
2017-12-02T11:48:14.674Z,23.67
2017-12-02T11:50:42.293Z,21.45
2017-12-02T11:53:09.744Z,24.00
2017-12-02T11:55:37.278Z,24.17
2017-12-02T11:58:05.516Z,22.80
2017-12-02T12:00:33.027Z,21.48
2017-12-02T12:03:00.489Z,21.02
2017-12-02T12:05:27.966Z,23.17
2017-12-02T12:07:55.458Z,23.65
2017-12-02T12:10:22.941Z,24.73
2017-12-02T12:12:51.188Z,24.40
2017-12-02T12:15:18.707Z,26.92
2017-12-02T12:17:46.164Z,23.90
2017-12-02T12:20:13.656Z,22.08
2017-12-02T12:22:41.121Z,23.17
2017-12-02T12:25:08.589Z,19.98
2017-12-02T12:27:36.052Z,19.52
2017-12-02T12:30:04.273Z,15.40
2017-12-02T12:32:31.977Z,19.67
2017-12-02T12:34:59.420Z,20.25
2017-12-02T12:37:26.938Z,20.75
2017-12-02T12:39:54.393Z,19.55
2017-12-02T12:42:21.860Z,16.08
2017-12-02T12:44:49.320Z,18.08
2017-12-02T12:47:16.784Z,15.35
2017-12-02T12:49:44.318Z,15.38
2017-12-02T12:52:12.509Z,17.37
2017-12-02T12:54:39.963Z,15.48
2017-12-02T12:57:07.522Z,15.20
2017-12-02T12:59:34.980Z,12.37
2017-12-02T13:02:02.436Z,20.00
2017-12-02T13:04:29.901Z,17.17
2017-12-02T13:06:57.612Z,14.60
2017-12-02T13:09:25.077Z,19.90
2017-12-02T13:11:53.333Z,18.98
2017-12-02T13:14:20.783Z,14.98
2017-12-02T13:16:48.241Z,19.83
2017-12-02T13:19:15.710Z,15.40
2017-12-02T13:21:43.987Z,14.43
2017-12-02T13:24:11.455Z,15.93
2017-12-02T13:26:39.666Z,15.68
2017-12-02T13:29:07.128Z,16.62
2017-12-02T13:31:34.586Z,17.65
2017-12-02T13:34:02.040Z,18.00
2017-12-02T13:36:30.288Z,19.77
2017-12-02T13:38:57.744Z,23.70
2017-12-02T13:41:25.212Z,17.50
2017-12-02T13:43:52.668Z,20.85
2017-12-02T13:46:20.130Z,22.90
2017-12-02T13:48:47.595Z,19.25
2017-12-02T13:51:15.074Z,18.92
2017-12-02T13:53:42.597Z,17.87
2017-12-02T13:56:10.070Z,17.83
2017-12-02T13:58:37.569Z,22.48
2017-12-02T14:01:05.907Z,17.48
2017-12-02T14:03:33.376Z,14.45
2017-12-02T14:06:00.860Z,17.80
2017-12-02T14:08:28.317Z,15.82
2017-12-02T14:10:55.773Z,19.90
2017-12-02T14:13:23.254Z,19.35
2017-12-02T14:15:50.718Z,16.10
2017-12-02T14:18:18.287Z,21.25
2017-12-02T14:20:45.737Z,17.27
2017-12-02T14:23:13.200Z,21.00
2017-12-02T14:25:40.717Z,19.30
2017-12-02T14:28:08.255Z,19.48
2017-12-02T14:30:35.712Z,17.60
2017-12-02T14:33:03.249Z,16.73
2017-12-02T14:35:30.710Z,19.95
2017-12-02T14:37:58.191Z,23.40
2017-12-02T14:40:25.759Z,20.80
2017-12-02T14:42:53.232Z,18.87
2017-12-02T14:45:21.461Z,18.70
2017-12-02T14:47:48.923Z,20.55
2017-12-02T14:50:16.385Z,17.73
2017-12-02T14:52:44.036Z,23.05
2017-12-02T14:55:11.551Z,16.65
2017-12-02T14:57:39.039Z,24.37
2017-12-02T15:00:06.664Z,23.02
2017-12-02T15:02:34.121Z,20.25
2017-12-02T15:05:01.585Z,26.05
2017-12-02T15:07:29.040Z,22.23
2017-12-02T15:09:56.613Z,17.77
2017-12-02T15:12:24.065Z,24.08
2017-12-02T15:14:51.593Z,34.10
2017-12-02T15:17:19.809Z,26.80
2017-12-02T15:19:47.316Z,30.15
2017-12-02T15:22:14.792Z,26.10
2017-12-02T15:24:43.039Z,29.92
2017-12-02T15:27:10.504Z,20.70
2017-12-02T15:29:38.736Z,26.65
2017-12-02T15:32:06.284Z,25.60
2017-12-02T15:37:07.553Z,28.98
2017-12-02T15:39:35.012Z,29.92
2017-12-02T15:42:02.560Z,26.77
2017-12-02T15:44:30.033Z,33.53
2017-12-02T15:46:57.532Z,27.45
2017-12-02T15:49:24.989Z,31.45
2017-12-02T15:51:53.227Z,26.87
2017-12-02T15:54:20.693Z,29.30
2017-12-02T15:56:48.179Z,28.30
2017-12-02T15:59:16.413Z,31.00
2017-12-02T16:01:43.881Z,29.35
2017-12-02T16:04:11.465Z,36.30
2017-12-02T16:06:39.137Z,34.40
2017-12-02T16:09:07.395Z,30.90
2017-12-02T16:11:34.877Z,29.83
2017-12-02T16:14:02.370Z,31.27
2017-12-02T16:16:29.823Z,29.55
2017-12-02T16:19:02.333Z,34.58
2017-12-02T16:21:29.896Z,30.23
2017-12-02T16:23:57.384Z,26.60
2017-12-02T16:26:24.852Z,34.35
2017-12-02T16:28:52.368Z,29.73
2017-12-02T16:31:19.855Z,38.53
2017-12-02T16:33:48.174Z,32.28
2017-12-02T16:36:15.665Z,29.10
2017-12-02T16:38:43.148Z,34.13
2017-12-02T16:41:10.670Z,28.80
2017-12-02T16:43:38.126Z,33.65
2017-12-02T16:46:05.629Z,35.10
2017-12-02T16:48:33.202Z,32.67
2017-12-02T16:51:01.091Z,33.58
2017-12-02T16:53:29.373Z,30.77
2017-12-02T16:55:56.836Z,32.65
2017-12-02T16:58:24.308Z,29.55
2017-12-02T17:00:51.769Z,37.63
2017-12-02T17:03:19.582Z,33.47
2017-12-02T17:05:47.874Z,33.25
2017-12-02T17:08:15.353Z,29.15
2017-12-02T17:10:42.816Z,35.17
2017-12-02T17:13:10.272Z,31.85
2017-12-02T17:15:37.744Z,36.03
2017-12-02T17:18:05.202Z,41.20
2017-12-02T17:20:33.422Z,29.37
2017-12-02T17:23:00.914Z,37.50
2017-12-02T17:25:28.374Z,36.58
2017-12-02T17:27:55.837Z,35.00
2017-12-02T17:30:23.381Z,32.72
2017-12-02T17:32:50.937Z,33.60
2017-12-02T17:35:18.520Z,30.90
2017-12-02T17:37:45.972Z,39.03
2017-12-02T17:40:13.512Z,42.00
2017-12-02T17:42:41.133Z,34.40
2017-12-02T17:45:08.593Z,32.33
2017-12-02T17:47:36.092Z,39.65
2017-12-02T17:50:03.648Z,37.78
2017-12-02T17:52:31.112Z,36.08
2017-12-02T17:54:58.564Z,33.00
2017-12-02T17:57:26.036Z,36.97
2017-12-02T17:59:53.501Z,29.02
2017-12-02T18:02:21.735Z,37.60
2017-12-02T18:04:49.199Z,31.15
2017-12-02T18:07:16.665Z,36.97
2017-12-02T18:09:45.648Z,37.75
2017-12-02T18:12:13.119Z,33.13
2017-12-02T18:14:40.677Z,35.03
2017-12-02T18:17:08.390Z,38.28
2017-12-02T18:19:35.846Z,32.28
2017-12-02T18:22:03.315Z,34.17
2017-12-02T18:24:30.778Z,33.53
2017-12-02T18:26:58.244Z,34.95
2017-12-02T18:29:25.713Z,40.25
2017-12-02T18:31:53.207Z,32.63
2017-12-02T18:34:20.648Z,41.58
2017-12-02T18:36:48.868Z,35.17
2017-12-02T18:39:16.369Z,32.22
2017-12-02T18:41:43.922Z,34.92
2017-12-02T18:44:11.378Z,32.08
2017-12-02T18:46:38.857Z,32.67
2017-12-02T18:49:07.085Z,31.00
2017-12-02T18:51:34.564Z,32.67
2017-12-02T18:54:03.532Z,37.80
2017-12-02T18:56:30.992Z,34.83
2017-12-02T18:58:58.457Z,31.35
2017-12-02T19:01:25.925Z,31.80
2017-12-02T19:03:53.394Z,38.60
2017-12-02T19:06:20.975Z,33.22
2017-12-02T19:08:48.412Z,31.98
2017-12-02T19:11:16.644Z,34.22
2017-12-02T19:13:44.107Z,28.87
2017-12-02T19:16:11.569Z,31.17
2017-12-02T19:18:39.106Z,31.20
2017-12-02T19:21:06.717Z,33.80
2017-12-02T19:23:34.301Z,29.75
2017-12-02T19:26:02.555Z,33.55
2017-12-02T19:28:30.054Z,31.23
2017-12-02T19:30:57.543Z,33.92
2017-12-02T19:33:25.029Z,32.75
2017-12-02T19:35:52.487Z,30.20
2017-12-02T19:38:20.720Z,29.80
2017-12-02T19:40:48.259Z,34.67
2017-12-02T19:43:15.775Z,33.40
2017-12-02T19:45:44.043Z,36.17
2017-12-02T19:48:11.517Z,36.92
2017-12-02T19:50:39.769Z,36.30
2017-12-02T19:53:07.229Z,38.90
2017-12-02T19:55:34.889Z,33.97
2017-12-02T19:58:02.354Z,32.70
2017-12-02T20:00:29.816Z,40.97
2017-12-02T20:02:58.048Z,29.77
2017-12-02T20:05:25.535Z,31.00
2017-12-02T20:07:53.000Z,31.67
2017-12-02T20:10:21.226Z,36.20
2017-12-02T20:12:48.741Z,33.53
2017-12-02T20:15:16.995Z,39.78
2017-12-02T20:17:44.465Z,44.15
2017-12-02T20:20:12.689Z,34.63
2017-12-02T20:22:40.158Z,34.20
2017-12-02T20:25:07.696Z,40.17
2017-12-02T20:27:35.151Z,34.65
2017-12-02T20:30:02.612Z,32.20
2017-12-02T20:32:30.077Z,36.40
2017-12-02T20:34:57.594Z,36.53
2017-12-02T20:37:25.900Z,45.60
2017-12-02T20:39:53.463Z,41.37
2017-12-02T20:42:20.925Z,37.65
2017-12-02T20:44:48.417Z,36.28
2017-12-02T20:47:15.887Z,33.00
2017-12-02T20:49:43.352Z,33.65
2017-12-02T20:52:11.573Z,43.53
2017-12-02T20:54:39.033Z,29.85
2017-12-02T20:57:06.519Z,29.08
2017-12-02T20:59:34.073Z,26.17
2017-12-02T21:02:01.536Z,27.92
2017-12-02T21:04:29.084Z,29.77
2017-12-02T21:06:56.714Z,29.60
2017-12-02T21:09:24.182Z,29.33
2017-12-02T21:11:51.719Z,24.55
2017-12-02T21:14:19.220Z,29.10
2017-12-02T21:16:46.730Z,27.52
2017-12-02T21:19:14.183Z,36.78
2017-12-02T21:21:41.711Z,28.75
2017-12-02T21:24:09.174Z,29.45
2017-12-02T21:26:37.411Z,29.92
2017-12-02T21:29:04.873Z,28.10
2017-12-02T21:31:32.340Z,32.47
2017-12-02T21:33:59.896Z,32.05
2017-12-02T21:36:27.357Z,29.73
2017-12-02T21:38:54.837Z,26.50
2017-12-02T21:41:23.065Z,29.65
2017-12-02T21:43:50.540Z,27.77
2017-12-02T21:46:18.002Z,32.42
2017-12-02T21:48:45.463Z,28.15
2017-12-02T21:51:13.698Z,26.58
2017-12-02T21:53:41.461Z,31.05
2017-12-02T21:56:08.962Z,42.92
2017-12-02T21:58:36.445Z,44.42
2017-12-02T22:01:03.941Z,39.75
2017-12-02T22:03:31.489Z,32.25
2017-12-02T22:05:58.944Z,29.85
2017-12-02T22:08:26.405Z,27.80
2017-12-02T22:10:54.177Z,29.20
2017-12-02T22:13:21.639Z,31.50
2017-12-02T22:15:49.178Z,36.80
2017-12-02T22:18:16.645Z,26.55
2017-12-02T22:20:44.096Z,29.83
2017-12-02T22:23:11.569Z,28.92
2017-12-02T22:25:39.024Z,32.95
2017-12-02T22:28:06.489Z,30.58
2017-12-02T22:30:33.952Z,46.42
2017-12-02T22:33:01.416Z,28.90
2017-12-02T22:35:28.873Z,30.85
2017-12-02T22:37:56.432Z,31.27
2017-12-02T22:40:23.886Z,36.83
2017-12-02T22:42:51.403Z,33.80
2017-12-02T22:45:18.912Z,31.95
2017-12-02T22:47:46.378Z,38.10
2017-12-02T22:50:14.604Z,29.20
2017-12-02T22:52:42.088Z,31.95
2017-12-02T22:55:09.636Z,33.85
2017-12-02T22:57:37.092Z,35.28
2017-12-02T23:00:04.576Z,36.13
2017-12-02T23:02:32.024Z,34.17
2017-12-02T23:04:59.583Z,28.77
2017-12-02T23:07:27.038Z,34.00
2017-12-02T23:09:54.500Z,34.33
2017-12-02T23:12:22.774Z,30.52
2017-12-02T23:14:50.235Z,40.00
2017-12-02T23:17:17.782Z,41.28
2017-12-02T23:19:45.341Z,32.95
2017-12-02T23:22:12.828Z,35.95
2017-12-02T23:24:41.061Z,34.28
2017-12-02T23:27:08.516Z,35.25
2017-12-02T23:29:35.985Z,39.00
2017-12-02T23:32:03.445Z,37.63
2017-12-02T23:34:30.911Z,37.03
2017-12-02T23:36:58.377Z,39.40
2017-12-02T23:39:26.623Z,32.05
2017-12-02T23:41:54.180Z,45.92
2017-12-02T23:44:21.653Z,38.25
2017-12-02T23:46:49.213Z,39.67
2017-12-02T23:49:17.504Z,37.92
2017-12-02T23:51:45.736Z,37.10
2017-12-02T23:54:13.196Z,34.90
2017-12-02T23:56:40.774Z,39.80
2017-12-02T23:59:08.273Z,41.47
